FQPBFQNC

Guest
Details From FQPB - PEMBA
To FQNC - NACALA
Flight Number -
Tags generated
Created
Modified
Stats Distance 96 nm / 177 km
Max Altitude 900 ft / 274 m
Waypoints 3
Social Downloads 0
Likes 0
Share VATSIM

Download

Looking for another format? Having issues loading an existing format? Contact us
Advertisement - Login to hide

Notes

Basic altitude profile: - Ascent Rate: 2500ft/min - Ascent Speed: 250kts - Cruise Altitude: 35000ft - Cruise Speed: 420kts - Descent Rate: 1500ft/min - Descent Speed: 250kts Options: - Use NATs: yes - Use PACOTS: yes - Use low airways: yes - Use high airways: yes

Route

FQPB PB FQNC

ID Type Via Altitude Latitude Longitude Leg Dist Tot Dist Heading (true) Name
O FQPB APT - 0 ft / 0 m -12.99025˚ 40.52272˚ - 0 nm - PEMBA
PB NDB - 900 ft / 274 m -12.95153˚ 40.50092˚ 2 nm 2 nm 331° / 331° PEMBA NDB
O FQNC APT - 0 ft / 0 m -14.48823˚ 40.71225˚ 93 nm 95 nm 172° / 172° NACALA

Altitude Profile

Advertisement - Login to hide

FQPB

Details ICAO FQPB (POL)
Name PEMBA
Region Mozambique
Timezone Africa/Maputo (UTC+2.0)
Stats Elevation 331 ft / 101 m (AMSL)
Location -12.990248° 40.522720°
Runways 2
Magnetic Variation 6.711° W

METAR

FQPB 110700Z 29004KT 250V360 9999 SCT020 FEW025CB BKN100 28/24 Q1014 RMK CB TO E/SE/S

Decode

TAF

TAF FQPB 110400Z 1106/1206 35008KT 9999 BKN020 FEW030CB PROB30 TEMPO 1106/1112 5000 -TSRA SCT012 FEW025CB BECMG 1112/1114 05012KT 9999 SCT015 BKN020 BECMG 1118/1120 09008KT TX28/1113Z TN24/1203Z

Decode

Departure Runways

ID Width Length Bearing (true) Bearing (mag) Surface Threshold Offset Overrun Length
08 98 ft / 30 m 2,631 ft / 802 m 76.61° 83.32° Asphalt 0 ft / 0 m 0 ft / 0 m
17 148 ft / 45 m 5,939 ft / 1,810 m 160.76° 167.47° Asphalt 0 ft / 0 m 0 ft / 0 m
26 98 ft / 30 m 2,631 ft / 802 m 256.61° 263.32° Asphalt 0 ft / 0 m 0 ft / 0 m
35 148 ft / 45 m 5,939 ft / 1,810 m 340.76° 347.47° Asphalt 0 ft / 0 m 0 ft / 0 m

FQNC

Details ICAO FQNC (MNC)
Name NACALA
Region Mozambique
Timezone Africa/Maputo (UTC+2.0)
Stats Elevation 410 ft / 125 m (AMSL)
Location -14.488233° 40.712250°
Runways 1
Magnetic Variation 8.159° W

METAR

Not found

TAF

TAF FQNC 110400Z 1106/1206 06008KT 9999 BKN020 FEW030CB PROB30 TEMPO 1106/1112 5000 -TSRA SCT012 FEW025CB BECMG 1110/1112 03015KT 9999 BKN020 BECMG 1118/1120 35010KT TX29/1113Z TN21/1203Z

Decode

Destination Runways

ID Width Length Bearing (true) Bearing (mag) Surface Threshold Offset Overrun Length
02 148 ft / 45 m 8,248 ft / 2,514 m 4.51° 12.67° Asphalt 0 ft / 0 m 0 ft / 0 m
20 148 ft / 45 m 8,248 ft / 2,514 m 184.51° 192.67° Asphalt 0 ft / 0 m 0 ft / 0 m